Карточка аэропорта UNKL

Внимание!
Информация на этой странице в стадии наполнения.
Если вы не увидели какой-то информации, или заметили неточность - пожалуйста сообщите нам!
Спасибо!
Команда RU-STAFF
Название аэропортаЕмельяново
Название аэропорта (англ.)Yemelyanovo
Превышение942 ft. (287.1 m.)
Координаты56°10.386', 92°29.598'
Высота перехода7500ft
Эшелон переходаFL090
Коды ответчика5320-5377
Зона ОрВДКрасноярск РПИ (UNKL)
Данные METARUNKL 290800Z 20007MPS 160V230 CAVOK 15/02 Q1008 R29/CLRD65 NOSIG RMK QFE730
Проноз погоды (TAF)UNKL 290743Z 2909/3009 20008G18MPS 9999 BKN016CB TEMPO 2909/2911 25011G25MPS BECMG 2911/2914 25005G12MPS BECMG 2915/2918 31003G08MPS BECMG 3000/3003 26005G12MPS
NOTAMshow/hide NOTAM
AWOS   TABLE

Информация о ВПП

ВПП Длина ВПП (м.) Покрытие Курс ВПП Частота ILS
293700Асфальтобетон289111.7
113700Асфальтобетон109110.5

Диспетчерские позиции

Позывной Наименование органа УВД Частота
UNKL_GNDКрасноярск-Руление121.9
UNKL_APPКрасноярск-Подход127.7
UNKL_R_APPКрасноярск-Круг122.0
UNKL_TWRКрасноярск-Вышка118.3



Спутниковое изображение